createdAt,value
2023-01-21T07:47:28.587Z,-0.38
2023-01-21T07:51:16.660Z,-0.30
2023-01-21T07:55:05.135Z,-0.17
2023-01-21T07:58:53.367Z,-0.04
2023-01-21T08:02:41.381Z,0.10
2023-01-21T08:06:28.670Z,0.22
2023-01-21T08:17:50.436Z,0.56
2023-01-21T08:21:38.459Z,0.68
2023-01-21T08:25:26.013Z,0.78
2023-01-21T08:29:13.252Z,0.86
2023-01-21T08:33:01.414Z,0.95
2023-01-21T08:36:48.638Z,1.04
2023-01-21T08:40:35.871Z,1.09
2023-01-21T08:43:22.696Z,1.16
2023-01-21T08:45:49.664Z,1.20
2023-01-21T08:48:16.774Z,1.25
2023-01-21T08:50:43.751Z,1.29
2023-01-21T08:53:12.210Z,1.34
2023-01-21T08:55:39.079Z,1.38
2023-01-21T08:58:05.949Z,1.43
2023-01-21T09:00:32.752Z,1.46
2023-01-21T09:03:00.385Z,1.50
2023-01-21T09:05:27.226Z,1.53
2023-01-21T09:07:54.060Z,1.55
2023-01-21T09:10:34.809Z,1.58
2023-01-21T09:13:09.373Z,1.62
2023-01-21T09:15:44.096Z,1.64
2023-01-21T09:18:11.370Z,1.66
2023-01-21T09:20:39.990Z,1.69
2023-01-21T09:23:22.808Z,1.72
2023-01-21T09:26:01.011Z,1.75
2023-01-21T09:28:28.316Z,1.77
2023-01-21T09:31:01.131Z,1.80
2023-01-21T09:33:29.984Z,1.82
2023-01-21T09:35:59.471Z,1.85
2023-01-21T09:38:27.513Z,1.89
2023-01-21T09:40:55.513Z,1.92
2023-01-21T09:43:36.620Z,1.94
2023-01-21T09:46:08.142Z,1.98
2023-01-21T09:48:41.850Z,2.02
2023-01-21T09:51:24.727Z,2.05
2023-01-21T09:53:56.931Z,2.09
2023-01-21T09:57:07.165Z,2.13
2023-01-21T09:59:54.005Z,2.17
2023-01-21T10:02:48.276Z,2.20
2023-01-21T10:05:37.192Z,2.24
2023-01-21T10:08:13.621Z,2.23
2023-01-21T10:10:52.533Z,2.23
2023-01-21T10:13:29.317Z,2.24
2023-01-21T10:16:10.070Z,2.26
2023-01-21T10:18:40.282Z,2.30
2023-01-21T10:21:16.715Z,2.32
2023-01-21T10:23:52.380Z,2.33
2023-01-21T10:26:19.288Z,2.34
2023-01-21T10:28:54.138Z,2.34
2023-01-21T10:31:30.073Z,2.33
2023-01-21T10:33:57.074Z,2.30
2023-01-21T10:36:26.614Z,2.29
2023-01-21T10:39:28.494Z,2.26
2023-01-21T10:42:10.107Z,2.24
2023-01-21T10:45:00.848Z,2.23
2023-01-21T10:47:30.441Z,2.21
2023-01-21T10:50:25.521Z,2.19
2023-01-21T10:53:20.040Z,2.19
2023-01-21T10:55:46.949Z,2.21
2023-01-21T10:58:33.941Z,2.22
2023-01-21T11:01:05.984Z,2.25
2023-01-21T11:06:25.097Z,2.35
2023-01-21T11:09:00.449Z,2.40
2023-01-21T11:11:35.794Z,2.43
2023-01-21T11:14:03.839Z,2.48
2023-01-21T11:16:35.711Z,2.54
2023-01-21T11:19:05.768Z,2.58
2023-01-21T11:21:33.179Z,2.62
2023-01-21T11:24:03.810Z,2.64
2023-01-21T11:26:37.675Z,2.64
2023-01-21T11:29:10.041Z,2.63
2023-01-21T11:31:38.125Z,2.64
2023-01-21T11:34:11.238Z,2.66
2023-01-21T11:36:38.262Z,2.67
2023-01-21T11:39:09.488Z,2.64
2023-01-21T11:41:36.728Z,2.61
2023-01-21T11:44:18.703Z,2.60
2023-01-21T11:46:46.735Z,2.60
2023-01-21T11:49:19.126Z,2.61
2023-01-21T11:51:47.242Z,2.63
2023-01-21T11:54:24.735Z,2.65
2023-01-21T11:57:02.549Z,2.67
2023-01-21T11:59:46.634Z,2.66
2023-01-21T12:02:19.581Z,2.64
2023-01-21T12:04:52.490Z,2.65
2023-01-21T12:07:31.674Z,2.65
2023-01-21T12:10:08.723Z,2.62
2023-01-21T12:12:35.426Z,2.55
2023-01-21T12:15:31.396Z,2.51
2023-01-21T12:18:21.487Z,2.49
2023-01-21T12:21:07.249Z,2.49
2023-01-21T12:24:00.795Z,2.51
2023-01-21T12:27:01.712Z,2.57
2023-01-21T12:29:36.995Z,2.67
2023-01-21T12:32:23.617Z,2.74
2023-01-21T12:34:59.862Z,2.76
2023-01-21T12:37:32.690Z,2.74
2023-01-21T12:40:05.859Z,2.71
2023-01-21T12:42:37.824Z,2.68
2023-01-21T12:45:29.213Z,2.65
2023-01-21T12:48:16.151Z,2.64
2023-01-21T12:50:48.606Z,2.63
2023-01-21T12:53:21.279Z,2.60
2023-01-21T12:56:17.764Z,2.55
2023-01-21T12:58:55.253Z,2.52
2023-01-21T13:01:35.262Z,2.50
2023-01-21T13:04:30.136Z,2.49
2023-01-21T13:07:05.883Z,2.48
2023-01-21T13:09:53.058Z,2.48
2023-01-21T13:12:25.963Z,2.48
2023-01-21T13:15:01.926Z,2.49
2023-01-21T13:17:34.485Z,2.48
2023-01-21T13:20:12.523Z,2.48
2023-01-21T13:23:00.027Z,2.46
2023-01-21T13:25:29.896Z,2.44
2023-01-21T13:28:10.537Z,2.42
2023-01-21T13:30:43.270Z,2.38
2023-01-21T13:33:16.066Z,2.36
2023-01-21T13:35:57.737Z,2.32
2023-01-21T13:38:41.227Z,2.29
2023-01-21T13:41:36.796Z,2.26
2023-01-21T13:44:23.202Z,2.21
2023-01-21T13:47:04.230Z,2.14
2023-01-21T13:49:40.294Z,2.07
2023-01-21T13:52:21.787Z,2.03
2023-01-21T13:55:00.798Z,1.98
2023-01-21T14:48:39.944Z,1.30
2023-01-21T14:51:06.894Z,1.46
2023-01-21T14:53:46.177Z,1.47
2023-01-21T14:56:23.172Z,1.47
2023-01-21T14:59:00.463Z,1.46
2023-01-21T15:01:40.529Z,1.44
2023-01-21T15:04:30.409Z,1.43
2023-01-21T15:06:59.064Z,1.41
2023-01-21T15:09:31.090Z,1.37
2023-01-21T15:12:05.768Z,1.32
2023-01-21T15:14:40.329Z,1.23
2023-01-21T15:17:36.499Z,1.13
2023-01-21T15:20:39.361Z,1.05
2023-01-21T15:23:27.571Z,1.02
2023-01-21T15:26:12.368Z,1.01
2023-01-21T15:28:52.233Z,1.01
2023-01-21T15:31:19.338Z,0.99
2023-01-21T15:33:55.509Z,0.97
2023-01-21T15:36:31.817Z,0.95
2023-01-21T15:39:15.252Z,0.92
2023-01-21T15:42:11.057Z,0.91
2023-01-21T15:45:05.932Z,0.90
2023-01-21T15:47:41.452Z,0.88
2023-01-21T15:50:24.791Z,0.85
2023-01-21T15:53:19.609Z,0.81
2023-01-21T15:56:06.655Z,0.77
2023-01-21T15:58:49.251Z,0.72
2023-01-21T16:01:35.438Z,0.68
2023-01-21T16:04:20.299Z,0.65
2023-01-21T16:07:08.412Z,0.62
2023-01-21T16:09:38.321Z,0.61
2023-01-21T16:12:11.690Z,0.60
2023-01-21T16:15:02.530Z,0.60
2023-01-21T16:17:59.769Z,0.60
2023-01-21T16:20:27.052Z,0.59
2023-01-21T16:22:58.319Z,0.60
2023-01-21T16:25:26.824Z,0.62
2023-01-21T16:27:55.087Z,0.63
2023-01-21T16:30:32.213Z,0.65
2023-01-21T16:33:17.330Z,0.67
2023-01-21T16:35:46.768Z,0.67
2023-01-21T16:38:16.250Z,0.67
2023-01-21T16:40:43.227Z,0.66
2023-01-21T16:43:50.453Z,0.63
2023-01-21T17:13:41.323Z,1.91
2023-01-21T17:16:20.010Z,1.93
2023-01-21T17:18:54.224Z,1.82
2023-01-21T17:21:32.833Z,1.68
2023-01-21T17:24:07.560Z,1.54
2023-01-21T17:26:44.055Z,1.42
2023-01-21T17:29:22.538Z,1.32
2023-01-21T17:32:00.351Z,1.22
2023-01-21T17:34:33.044Z,1.14
2023-01-21T17:37:00.708Z,1.08
2023-01-21T17:39:48.315Z,1.03
2023-01-21T17:42:21.567Z,0.97
2023-01-21T17:45:01.478Z,0.94
2023-01-21T17:47:29.752Z,0.89
2023-01-21T17:50:12.671Z,0.83
2023-01-21T17:52:39.966Z,0.80
2023-01-21T17:55:26.745Z,0.77
2023-01-21T17:57:55.084Z,0.75
2023-01-21T18:00:31.072Z,0.73
2023-01-21T18:02:58.801Z,0.71
2023-01-21T18:05:26.294Z,0.67
2023-01-21T18:07:53.102Z,0.65
2023-01-21T18:10:24.716Z,0.62
2023-01-21T18:12:52.436Z,0.58
2023-01-21T18:15:20.635Z,0.55
2023-01-21T18:17:56.545Z,0.51
2023-01-21T18:20:26.490Z,0.47
2023-01-21T18:22:54.971Z,0.45
2023-01-21T18:25:27.456Z,0.43
2023-01-21T18:27:55.033Z,0.44
2023-01-21T18:30:27.352Z,0.44
2023-01-21T18:32:56.058Z,0.45
2023-01-21T18:35:27.814Z,0.46
2023-01-21T18:37:54.944Z,0.47
2023-01-21T18:40:23.804Z,0.49
2023-01-21T18:42:53.107Z,0.50
2023-01-21T18:45:30.524Z,0.49
2023-01-21T18:47:58.594Z,0.48
2023-01-21T18:50:28.306Z,0.48
2023-01-21T18:52:56.071Z,0.46
2023-01-21T18:55:27.907Z,0.44
2023-01-21T18:57:57.026Z,0.41
2023-01-21T19:00:30.821Z,0.38
2023-01-21T19:03:01.139Z,0.35
2023-01-21T19:05:34.374Z,0.32
2023-01-21T19:08:02.237Z,0.31
2023-01-21T19:10:33.195Z,0.30
2023-01-21T19:13:00.323Z,0.28
2023-01-21T19:15:29.183Z,0.25
2023-01-21T19:17:57.462Z,0.22
2023-01-21T19:20:27.585Z,0.21
2023-01-21T19:22:56.166Z,0.21
2023-01-21T19:25:25.650Z,0.22
2023-01-21T19:27:56.206Z,0.24
2023-01-21T19:30:31.860Z,0.25
2023-01-21T19:33:03.552Z,0.27
2023-01-21T19:35:43.750Z,0.28
2023-01-21T19:38:21.786Z,0.28
2023-01-21T19:40:48.600Z,0.27
2023-01-21T19:43:23.347Z,0.28
2023-01-21T19:45:52.200Z,0.28
2023-01-21T19:48:21.200Z,0.28
2023-01-21T19:50:48.622Z,0.28
2023-01-21T19:53:17.824Z,0.28
2023-01-21T19:55:46.475Z,0.30
2023-01-21T19:58:19.992Z,0.32
2023-01-21T20:00:52.795Z,0.33
2023-01-21T20:03:22.238Z,0.35
2023-01-21T20:05:53.137Z,0.35
2023-01-21T20:08:23.911Z,0.35
2023-01-21T20:10:50.746Z,0.36
2023-01-21T20:13:18.745Z,0.37
2023-01-21T20:15:48.476Z,0.38
2023-01-21T20:18:20.450Z,0.39
2023-01-21T20:20:47.410Z,0.39
2023-01-21T20:23:16.515Z,0.39
2023-01-21T20:25:45.524Z,0.36
2023-01-21T20:28:26.813Z,0.33
2023-01-21T20:30:55.153Z,0.30
2023-01-21T20:33:23.446Z,0.24
2023-01-21T20:35:53.297Z,0.19
2023-01-21T20:38:23.388Z,0.16
2023-01-21T20:40:50.182Z,0.14
2023-01-21T20:43:20.004Z,0.11
2023-01-21T20:45:48.960Z,0.09
2023-01-21T20:48:21.780Z,0.09
2023-01-21T20:50:49.301Z,0.09
2023-01-21T20:53:16.361Z,0.11
2023-01-21T20:55:47.778Z,0.12
2023-01-21T20:58:16.341Z,0.14
2023-01-21T21:00:44.845Z,0.15
2023-01-21T21:03:13.655Z,0.14
2023-01-21T21:05:40.637Z,0.12
2023-01-21T21:08:13.874Z,0.13
2023-01-21T21:10:40.737Z,0.13
2023-01-21T21:13:07.924Z,0.13
2023-01-21T21:15:36.989Z,0.15
2023-01-21T21:18:05.091Z,0.17
2023-01-21T21:20:39.124Z,0.19
2023-01-21T21:23:07.718Z,0.19
2023-01-21T21:25:41.122Z,0.20
2023-01-21T21:28:19.635Z,0.21
2023-01-21T21:30:46.564Z,0.23
2023-01-21T21:33:21.811Z,0.26
2023-01-21T21:35:49.898Z,0.28
2023-01-21T21:38:21.947Z,0.28
2023-01-21T21:40:53.270Z,0.26
2023-01-21T21:43:35.976Z,0.24
2023-01-21T21:46:25.770Z,0.23
2023-01-21T21:48:52.908Z,0.22
2023-01-21T21:51:22.293Z,0.20
2023-01-21T21:53:49.249Z,0.19
2023-01-21T21:56:21.685Z,0.16
2023-01-21T21:58:49.541Z,0.14
2023-01-21T22:01:25.265Z,0.11
2023-01-21T22:03:52.890Z,0.09
2023-01-21T22:06:22.164Z,0.07
2023-01-21T22:08:49.454Z,0.07
2023-01-21T22:11:21.428Z,0.06
2023-01-21T22:13:50.622Z,0.06
2023-01-21T22:16:23.953Z,0.05
2023-01-21T22:18:52.008Z,0.05
2023-01-21T22:21:21.806Z,0.06
2023-01-21T22:23:49.559Z,0.05
2023-01-21T22:26:21.789Z,0.07
2023-01-21T22:28:51.706Z,0.06
2023-01-21T22:31:25.868Z,0.06
2023-01-21T22:33:53.249Z,0.04
2023-01-21T22:36:22.942Z,0.03
2023-01-21T22:38:50.401Z,0.03
2023-01-21T22:41:20.068Z,0.01
2023-01-21T22:43:51.039Z,0.01
2023-01-21T22:46:21.591Z,0.00
2023-01-21T22:48:48.382Z,-0.00
2023-01-21T22:51:16.746Z,-0.01
2023-01-21T22:53:46.439Z,-0.00
2023-01-21T22:56:15.317Z,-0.01
2023-01-21T22:58:42.526Z,-0.01
2023-01-21T23:01:21.428Z,-0.03
2023-01-21T23:03:48.162Z,-0.04
2023-01-21T23:06:15.031Z,-0.06
2023-01-21T23:08:42.079Z,-0.07
2023-01-21T23:11:10.476Z,-0.08
2023-01-21T23:13:37.356Z,-0.09
2023-01-21T23:16:09.702Z,-0.10
2023-01-21T23:18:40.408Z,-0.12
2023-01-21T23:21:09.910Z,-0.12
2023-01-21T23:23:38.073Z,-0.13
2023-01-21T23:26:06.551Z,-0.14
2023-01-21T23:28:35.140Z,-0.15
2023-01-21T23:31:13.185Z,-0.17
2023-01-21T23:33:42.142Z,-0.18
2023-01-21T23:36:12.926Z,-0.18
2023-01-21T23:38:43.709Z,-0.19
2023-01-21T23:41:13.791Z,-0.20
2023-01-21T23:43:41.112Z,-0.21
2023-01-21T23:46:11.491Z,-0.22
2023-01-21T23:48:38.991Z,-0.23
2023-01-21T23:51:08.308Z,-0.24
2023-01-21T23:53:35.758Z,-0.23
2023-01-21T23:56:08.529Z,-0.24
2023-01-21T23:58:35.739Z,-0.24
